Time;durP1;ratioP1;P1;durP2;ratioP2;P2;SDS_P1;SDS_P2;PMS_P1;PMS_P2;Temp;Humidity;BMP_temperature;BMP_pressure;BME280_temperature;BME280_humidity;BME280_pressure;Samples;Min_cycle;Max_cycle;Signal;HPM_P1;HPM_P2
2023/02/01 00:01:28;;;;;;;23.93;7.10;;;6.20;99.90;;;;;;5045643;28;20208;-66
2023/02/01 00:03:56;;;;;;;33.30;7.90;;;6.20;99.90;;;;;;5047608;28;20617;-66
2023/02/01 00:06:25;;;;;;;26.33;6.97;;;6.20;99.90;;;;;;5054876;28;20189;-65
2023/02/01 00:08:54;;;;;;;26.30;6.97;;;6.20;99.90;;;;;;5054474;28;20240;-65
2023/02/01 00:11:23;;;;;;;22.73;6.60;;;6.20;99.90;;;;;;5053062;28;20201;-65
2023/02/01 00:13:52;;;;;;;22.20;6.57;;;6.20;99.90;;;;;;5038480;28;20193;-66
2023/02/01 00:16:25;;;;;;;24.67;6.40;;;6.20;99.90;;;;;;5059074;28;20590;-66
2023/02/01 00:18:59;;;;;;;24.50;5.47;;;6.30;99.90;;;;;;5045340;28;20201;-66
2023/02/01 00:21:28;;;;;;;35.53;5.90;;;6.30;99.90;;;;;;5044012;28;20209;-65
2023/02/01 00:23:56;;;;;;;23.40;5.43;;;6.30;99.90;;;;;;5051322;28;20211;-65
2023/02/01 00:26:31;;;;;;;18.90;4.80;;;6.30;99.90;;;;;;5053133;28;20800;-66
2023/02/01 00:28:59;;;;;;;20.27;5.03;;;6.30;99.90;;;;;;5053414;28;20200;-65
2023/02/01 00:31:29;;;;;;;23.50;5.30;;;6.20;99.90;;;;;;5055822;28;20196;-65
2023/02/01 00:33:58;;;;;;;21.57;5.00;;;6.20;99.90;;;;;;5048471;28;20258;-66
2023/02/01 00:36:26;;;;;;;17.70;4.60;;;6.20;99.90;;;;;;5053448;28;20193;-66
2023/02/01 00:38:54;;;;;;;19.97;4.70;;;6.20;99.90;;;;;;5056548;28;20229;-66
2023/02/01 00:41:23;;;;;;;19.90;4.33;;;6.20;99.90;;;;;;5060972;28;20200;-65
2023/02/01 00:43:51;;;;;;;21.10;5.67;;;6.20;99.90;;;;;;5059244;28;20860;-65
2023/02/01 00:46:21;;;;;;;28.27;5.77;;;6.20;99.90;;;;;;5055218;28;20223;-66
2023/02/01 00:48:51;;;;;;;20.30;5.03;;;6.30;99.90;;;;;;5052918;28;20276;-65
2023/02/01 00:51:21;;;;;;;21.27;5.20;;;6.30;99.90;;;;;;5052665;28;20201;-65
2023/02/01 00:53:50;;;;;;;22.57;4.77;;;6.40;99.90;;;;;;5054903;28;20556;-65
2023/02/01 00:56:18;;;;;;;17.03;4.73;;;6.30;99.90;;;;;;5049588;28;20860;-65
2023/02/01 00:58:47;;;;;;;25.07;5.33;;;6.20;99.90;;;;;;5037950;28;20202;-66
2023/02/01 01:01:18;;;;;;;16.40;5.10;;;6.20;99.90;;;;;;5062491;28;21004;-66
2023/02/01 01:03:50;;;;;;;19.37;4.83;;;6.20;99.90;;;;;;5051005;28;20213;-66
2023/02/01 01:06:22;;;;;;;15.50;4.30;;;6.10;99.90;;;;;;5065071;28;20670;-66
2023/02/01 01:08:53;;;;;;;18.70;4.77;;;6.00;99.90;;;;;;5050972;28;20591;-66
2023/02/01 01:11:24;;;;;;;21.70;4.20;;;5.90;99.90;;;;;;5049408;28;20684;-66
2023/02/01 01:13:55;;;;;;;25.80;5.13;;;5.80;99.90;;;;;;5062112;28;20207;-65
2023/02/01 01:16:24;;;;;;;21.97;4.87;;;5.80;99.90;;;;;;5051993;28;20197;-65
2023/02/01 01:18:53;;;;;;;29.40;5.00;;;5.80;99.90;;;;;;5047134;28;20583;-65
2023/02/01 01:21:23;;;;;;;17.10;4.63;;;5.80;99.90;;;;;;5054464;28;20208;-65
2023/02/01 01:23:52;;;;;;;34.70;5.73;;;5.70;99.90;;;;;;5055377;28;22335;-65
2023/02/01 01:26:22;;;;;;;21.30;5.33;;;5.60;99.90;;;;;;5052450;28;20185;-65
2023/02/01 01:28:51;;;;;;;19.57;5.03;;;5.60;99.90;;;;;;5045844;28;20190;-66
2023/02/01 01:31:21;;;;;;;15.47;4.60;;;5.50;99.90;;;;;;5048675;28;20201;-66
2023/02/01 01:33:50;;;;;;;22.00;4.90;;;5.50;99.90;;;;;;5050675;28;20201;-65
2023/02/01 01:36:19;;;;;;;12.47;4.40;;;5.40;99.90;;;;;;5052546;28;20220;-66
2023/02/01 01:38:50;;;;;;;25.33;5.17;;;5.40;99.90;;;;;;5049712;28;20849;-66
2023/02/01 01:41:20;;;;;;;21.73;4.80;;;5.30;99.90;;;;;;5053538;28;20560;-65
2023/02/01 01:43:55;;;;;;;24.60;5.03;;;5.30;99.90;;;;;;5049808;28;20251;-65
2023/02/01 01:46:25;;;;;;;18.93;5.00;;;5.20;99.90;;;;;;5063177;28;20192;-65
2023/02/01 01:49:02;;;;;;;22.80;4.60;;;5.20;99.90;;;;;;5048668;28;20224;-65
2023/02/01 01:51:33;;;;;;;16.77;4.10;;;5.10;99.90;;;;;;5053760;28;20192;-65
2023/02/01 01:54:07;;;;;;;26.10;5.03;;;5.00;99.90;;;;;;5049615;28;20197;-65
2023/02/01 01:56:36;;;;;;;14.33;4.77;;;4.90;99.90;;;;;;5050562;28;20197;-65
2023/02/01 01:59:06;;;;;;;23.27;5.30;;;4.90;99.90;;;;;;5080408;28;20193;-65
2023/02/01 02:01:34;;;;;;;21.43;5.97;;;4.90;99.90;;;;;;5044107;28;20642;-65
2023/02/01 02:04:03;;;;;;;23.60;5.80;;;4.90;99.90;;;;;;5047331;28;20209;-66
2023/02/01 02:06:39;;;;;;;31.20;5.33;;;4.90;99.90;;;;;;5048250;28;20592;-66
2023/02/01 02:09:09;;;;;;;16.73;4.90;;;4.90;99.90;;;;;;5037889;28;20319;-65
2023/02/01 02:11:37;;;;;;;21.53;5.00;;;4.90;99.90;;;;;;5059071;28;20201;-66
2023/02/01 02:14:09;;;;;;;29.87;5.57;;;5.00;99.90;;;;;;5050446;28;20639;-66
2023/02/01 02:16:53;;;;;;;33.10;6.00;;;5.10;99.90;;;;;;5045216;28;20211;-65
2023/02/01 02:20:09;;;;;;;23.10;5.73;;;5.10;99.90;;;;;;5047137;28;20207;-65
2023/02/01 02:23:13;;;;;;;21.07;5.30;;;5.20;99.90;;;;;;5052805;28;20258;-66
2023/02/01 02:26:22;;;;;;;24.03;5.40;;;5.30;99.90;;;;;;5029922;28;20228;-65
2023/02/01 02:29:18;;;;;;;24.80;5.73;;;5.40;99.90;;;;;;5057706;28;20209;-65
2023/02/01 02:32:09;;;;;;;14.20;5.20;;;5.40;99.90;;;;;;5045845;28;20220;-66
2023/02/01 02:34:41;;;;;;;30.97;5.30;;;5.40;99.90;;;;;;5056734;28;20685;-65
2023/02/01 02:37:19;;;;;;;21.37;5.23;;;5.30;99.90;;;;;;5051257;28;20195;-65
2023/02/01 02:39:54;;;;;;;22.30;5.10;;;5.30;99.90;;;;;;5053967;28;20216;-66
2023/02/01 02:48:14;;;;;;;31.80;5.70;;;5.20;99.90;;;;;;5055360;28;20254;-65
2023/02/01 03:04:56;;;;;;;36.33;6.23;;;5.20;99.90;;;;;;5047056;28;20296;-65
2023/02/01 03:07:50;;;;;;;22.17;5.23;;;5.30;99.90;;;;;;5076066;28;20234;-65
2023/02/01 03:10:27;;;;;;;21.67;4.30;;;5.40;99.90;;;;;;5046261;28;20295;-65
2023/02/01 03:13:01;;;;;;;19.00;4.50;;;5.30;99.90;;;;;;5049656;28;20281;-66
2023/02/01 03:15:37;;;;;;;16.07;4.30;;;5.30;99.90;;;;;;5045352;28;20289;-65
2023/02/01 03:18:11;;;;;;;18.73;4.60;;;5.30;99.90;;;;;;5046867;28;20250;-65
2023/02/01 03:20:44;;;;;;;23.37;5.03;;;5.30;99.90;;;;;;5075045;28;20548;-66
2023/02/01 03:23:18;;;;;;;27.43;4.53;;;5.30;99.90;;;;;;5044277;28;20200;-65
2023/02/01 03:25:49;;;;;;;26.37;5.53;;;5.30;99.90;;;;;;5064792;28;20204;-66
2023/02/01 03:28:21;;;;;;;21.90;5.10;;;5.20;99.90;;;;;;5063745;28;20200;-65
2023/02/01 03:30:52;;;;;;;26.57;5.00;;;5.20;99.90;;;;;;5045120;28;20205;-65
2023/02/01 03:33:24;;;;;;;21.30;4.47;;;5.20;99.90;;;;;;5052080;28;20293;-66
2023/02/01 03:36:00;;;;;;;22.40;4.57;;;5.20;99.90;;;;;;5046178;28;20185;-65
2023/02/01 03:38:35;;;;;;;21.77;4.60;;;5.20;99.90;;;;;;5045586;28;20211;-65
2023/02/01 03:41:13;;;;;;;26.53;4.43;;;5.20;99.90;;;;;;5049814;28;20196;-65
2023/02/01 03:43:53;;;;;;;23.43;4.93;;;5.30;99.90;;;;;;5049256;28;20283;-65
2023/02/01 03:46:32;;;;;;;24.67;5.07;;;5.20;99.90;;;;;;5043259;28;20244;-65
2023/02/01 03:49:07;;;;;;;19.47;4.27;;;5.20;99.90;;;;;;5049713;28;20208;-66
2023/02/01 03:51:39;;;;;;;21.27;5.27;;;5.10;99.90;;;;;;5047943;28;20196;-66
2023/02/01 03:54:12;;;;;;;21.70;4.93;;;5.10;99.90;;;;;;5048565;28;20690;-65
2023/02/01 03:56:45;;;;;;;25.50;5.63;;;5.10;99.90;;;;;;5047342;28;20205;-65
2023/02/01 03:59:14;;;;;;;29.47;5.53;;;5.00;99.90;;;;;;5044151;28;20201;-65
2023/02/01 04:01:43;;;;;;;18.80;4.90;;;5.00;99.90;;;;;;5047466;28;20215;-65
2023/02/01 04:04:19;;;;;;;21.77;5.10;;;5.00;99.90;;;;;;5051647;28;20283;-66
2023/02/01 04:06:48;;;;;;;27.47;4.97;;;5.00;99.90;;;;;;5058834;28;20220;-65
2023/02/01 04:09:18;;;;;;;27.43;5.10;;;5.00;99.90;;;;;;5044204;28;20229;-66
2023/02/01 04:11:46;;;;;;;18.93;4.47;;;5.00;99.90;;;;;;5047860;28;20185;-65
2023/02/01 04:14:55;;;;;;;32.40;5.77;;;5.00;99.90;;;;;;5046408;28;20677;-65
2023/02/01 04:18:03;;;;;;;25.27;4.37;;;4.90;99.90;;;;;;5048423;28;20193;-65
2023/02/01 04:21:12;;;;;;;24.17;5.20;;;4.90;99.90;;;;;;5042699;28;20204;-65
2023/02/01 04:24:21;;;;;;;28.93;4.97;;;4.80;99.90;;;;;;5048146;28;20215;-65
2023/02/01 04:27:30;;;;;;;25.73;4.70;;;4.70;99.90;;;;;;5044518;28;20235;-65
2023/02/01 04:30:38;;;;;;;27.10;4.50;;;4.70;99.90;;;;;;5053793;28;20258;-65
2023/02/01 04:33:47;;;;;;;23.30;5.10;;;4.70;99.90;;;;;;5052041;28;20212;-65
2023/02/01 04:36:55;;;;;;;19.83;4.77;;;4.60;99.90;;;;;;5056478;28;20192;-65
2023/02/01 04:40:07;;;;;;;19.13;4.70;;;4.60;99.90;;;;;;5049161;28;20228;-65
2023/02/01 04:43:15;;;;;;;19.20;5.20;;;4.50;99.90;;;;;;5049838;28;20736;-65
2023/02/01 04:46:24;;;;;;;28.10;4.97;;;4.50;99.90;;;;;;5047685;28;20308;-65
2023/02/01 04:49:32;;;;;;;23.60;5.07;;;4.60;99.90;;;;;;5051474;28;20200;-65
2023/02/01 04:52:41;;;;;;;26.07;4.67;;;4.50;99.90;;;;;;5045484;28;20225;-66
2023/02/01 04:55:51;;;;;;;21.40;5.33;;;4.50;99.90;;;;;;5063082;28;20199;-65
2023/02/01 04:58:59;;;;;;;24.73;4.63;;;4.50;99.90;;;;;;5053056;28;20196;-65
2023/02/01 05:02:07;;;;;;;26.07;4.97;;;4.50;99.90;;;;;;5045762;28;20721;-66
2023/02/01 05:05:17;;;;;;;18.93;4.27;;;4.50;99.90;;;;;;5044763;28;20197;-65
2023/02/01 05:08:26;;;;;;;16.07;4.20;;;4.50;99.90;;;;;;5048870;28;20286;-65
2023/02/01 05:15:19;;;;;;;27.73;4.60;;;4.40;99.90;;;;;;4964026;28;20223;-66
2023/02/01 05:18:28;;;;;;;21.33;4.37;;;4.40;99.90;;;;;;4964859;28;20200;-65
2023/02/01 05:21:36;;;;;;;24.60;4.70;;;4.50;99.90;;;;;;5053256;28;20201;-65
2023/02/01 05:24:44;;;;;;;23.87;5.00;;;4.50;99.90;;;;;;5052094;28;20548;-65
2023/02/01 05:27:54;;;;;;;25.43;4.50;;;4.40;99.90;;;;;;5047778;28;20274;-65
2023/02/01 05:31:10;;;;;;;23.33;5.20;;;4.50;99.90;;;;;;5053124;28;20228;-65
2023/02/01 05:34:19;;;;;;;22.50;4.40;;;4.50;99.90;;;;;;5053877;28;20224;-65
2023/02/01 05:37:27;;;;;;;24.67;5.13;;;4.50;99.90;;;;;;5050294;28;20193;-66
2023/02/01 05:40:36;;;;;;;26.13;5.60;;;4.50;99.90;;;;;;5027596;28;20237;-66
2023/02/01 05:43:11;;;;;;;22.47;5.30;;;4.40;99.90;;;;;;5036682;28;20201;-65
2023/02/01 05:45:40;;;;;;;29.93;5.53;;;4.40;99.90;;;;;;5025142;28;20594;-66
2023/02/01 05:48:08;;;;;;;25.17;5.00;;;4.40;99.90;;;;;;5027129;28;20256;-65
2023/02/01 05:50:36;;;;;;;27.77;5.43;;;4.40;99.90;;;;;;5028145;28;20193;-65
2023/02/01 05:53:05;;;;;;;19.20;4.97;;;4.40;99.90;;;;;;5027496;28;20217;-65
2023/02/01 05:55:33;;;;;;;27.97;5.60;;;4.40;99.90;;;;;;5031437;28;20197;-67
2023/02/01 05:58:02;;;;;;;23.80;5.67;;;4.40;99.90;;;;;;5027202;28;20774;-66
2023/02/01 06:00:32;;;;;;;29.57;5.30;;;4.30;99.90;;;;;;5029654;28;20194;-66
2023/02/01 06:03:01;;;;;;;25.43;6.03;;;4.30;99.90;;;;;;5038346;28;20680;-65
2023/02/01 06:05:30;;;;;;;30.03;5.20;;;4.20;99.90;;;;;;5029484;28;20205;-66
2023/02/01 06:07:58;;;;;;;16.53;4.00;;;4.20;99.90;;;;;;5039383;28;20295;-66
2023/02/01 06:10:26;;;;;;;19.27;4.50;;;4.30;99.90;;;;;;5041297;28;20201;-65
2023/02/01 06:12:55;;;;;;;22.93;5.10;;;4.30;99.90;;;;;;5066231;28;20280;-65
2023/02/01 06:15:24;;;;;;;33.93;4.90;;;4.20;99.90;;;;;;5024057;28;20844;-65
2023/02/01 06:17:54;;;;;;;26.33;5.20;;;4.20;99.90;;;;;;5024658;28;20194;-65
2023/02/01 06:20:23;;;;;;;19.87;4.57;;;4.20;99.90;;;;;;5055281;28;20197;-65
2023/02/01 06:22:52;;;;;;;17.63;4.50;;;4.20;99.90;;;;;;5044119;28;20206;-66
2023/02/01 06:25:23;;;;;;;20.07;4.47;;;4.20;99.90;;;;;;5025326;28;20192;-66
2023/02/01 06:27:51;;;;;;;37.57;5.27;;;4.20;99.90;;;;;;5028866;28;20221;-65
2023/02/01 06:30:20;;;;;;;17.30;4.60;;;4.30;99.90;;;;;;5028895;28;20204;-65
2023/02/01 06:32:54;;;;;;;21.30;4.53;;;4.30;99.90;;;;;;5037093;28;20198;-65
2023/02/01 06:35:22;;;;;;;22.27;4.60;;;4.20;99.90;;;;;;5024407;28;20206;-65
2023/02/01 06:37:51;;;;;;;29.37;4.90;;;4.20;99.90;;;;;;5042522;28;20631;-65
2023/02/01 06:40:20;;;;;;;24.93;4.70;;;4.10;99.90;;;;;;5026973;28;20223;-65
2023/02/01 06:42:49;;;;;;;32.73;5.03;;;4.20;99.90;;;;;;5024215;28;20193;-65
2023/02/01 06:45:18;;;;;;;27.50;5.20;;;4.20;99.90;;;;;;5022814;28;20683;-65
2023/02/01 06:47:46;;;;;;;23.30;4.97;;;4.20;99.90;;;;;;5024191;28;20205;-65
2023/02/01 06:50:16;;;;;;;24.50;5.27;;;4.20;99.90;;;;;;5019684;28;20220;-65
2023/02/01 06:52:45;;;;;;;26.00;4.87;;;4.20;99.90;;;;;;5028264;28;20197;-65
2023/02/01 06:55:13;;;;;;;25.13;4.87;;;4.20;99.90;;;;;;5022917;28;20571;-65
2023/02/01 06:57:42;;;;;;;26.13;5.20;;;4.20;99.90;;;;;;5040588;28;20197;-65
2023/02/01 07:00:11;;;;;;;24.60;4.60;;;4.20;99.90;;;;;;5029176;28;20224;-65
2023/02/01 07:02:39;;;;;;;30.23;5.10;;;4.20;99.90;;;;;;5019906;28;20202;-65
2023/02/01 07:05:08;;;;;;;27.10;4.33;;;4.20;99.90;;;;;;5041550;28;20200;-65
2023/02/01 07:07:38;;;;;;;17.17;4.27;;;4.10;99.90;;;;;;5027301;28;20801;-65
2023/02/01 07:10:07;;;;;;;30.87;5.83;;;4.10;99.90;;;;;;5032883;28;20280;-65
2023/02/01 07:12:35;;;;;;;29.77;5.30;;;4.10;99.90;;;;;;5032512;28;20189;-65
2023/02/01 07:15:04;;;;;;;28.27;5.37;;;4.20;99.90;;;;;;5029686;28;20281;-65
2023/02/01 07:17:32;;;;;;;31.47;5.30;;;4.20;99.90;;;;;;5029315;28;20212;-65
2023/02/01 07:20:01;;;;;;;37.07;5.53;;;4.20;99.90;;;;;;5022872;28;20231;-65
2023/02/01 07:22:30;;;;;;;25.30;5.60;;;4.20;99.90;;;;;;5028343;28;20284;-65
2023/02/01 07:24:59;;;;;;;28.33;5.87;;;4.20;99.90;;;;;;5033124;28;20551;-65
2023/02/01 07:27:27;;;;;;;20.87;4.57;;;4.20;99.90;;;;;;5029916;28;20576;-65
2023/02/01 07:29:56;;;;;;;27.53;5.67;;;4.20;99.90;;;;;;5029853;28;20197;-65
2023/02/01 07:32:24;;;;;;;31.10;5.20;;;4.20;99.90;;;;;;5052899;28;20201;-65
2023/02/01 07:34:53;;;;;;;25.37;5.37;;;4.20;99.90;;;;;;5026563;28;20909;-65
2023/02/01 07:37:21;;;;;;;23.00;4.97;;;4.20;99.90;;;;;;5022376;28;20232;-65
2023/02/01 07:39:49;;;;;;;19.60;5.03;;;4.20;99.90;;;;;;5029400;28;20228;-65
2023/02/01 07:42:19;;;;;;;24.53;4.70;;;4.30;99.90;;;;;;5028449;28;20194;-65
2023/02/01 07:44:48;;;;;;;30.50;5.67;;;4.40;99.90;;;;;;5031017;28;20204;-65
2023/02/01 07:47:16;;;;;;;24.17;4.93;;;4.40;99.90;;;;;;5028293;28;20232;-64
2023/02/01 07:49:44;;;;;;;30.03;5.43;;;4.40;99.90;;;;;;5028948;28;20193;-65
2023/02/01 07:52:16;;;;;;;23.90;4.67;;;4.50;99.90;;;;;;5028102;28;20210;-65
2023/02/01 07:54:45;;;;;;;20.30;4.37;;;4.60;99.90;;;;;;5024959;28;20637;-65
2023/02/01 07:57:13;;;;;;;24.87;4.33;;;4.70;99.90;;;;;;5060488;28;20201;-65
2023/02/01 08:02:25;;;;;;;21.90;5.17;;;4.80;99.90;;;;;;5060500;28;20288;-64
2023/02/01 08:04:54;;;;;;;27.73;5.33;;;4.90;99.90;;;;;;5014216;28;20229;-65
2023/02/01 08:07:22;;;;;;;25.80;4.90;;;4.90;99.90;;;;;;5029850;28;20225;-65
2023/02/01 08:09:50;;;;;;;19.00;4.60;;;5.00;99.90;;;;;;5033042;28;20196;-65
2023/02/01 08:12:19;;;;;;;18.00;4.63;;;5.10;99.90;;;;;;5031355;28;20210;-65
2023/02/01 08:14:48;;;;;;;25.40;5.00;;;5.10;99.90;;;;;;5030738;28;20193;-64
2023/02/01 08:17:17;;;;;;;21.97;5.10;;;5.20;99.90;;;;;;5028183;28;20202;-65
2023/02/01 08:19:45;;;;;;;29.80;4.77;;;5.10;99.90;;;;;;5027293;28;20189;-65
2023/02/01 08:22:13;;;;;;;24.57;4.83;;;5.10;99.90;;;;;;5027886;28;20201;-65
2023/02/01 08:24:42;;;;;;;24.00;4.90;;;5.20;99.90;;;;;;5025984;28;20198;-65
2023/02/01 08:27:12;;;;;;;24.73;5.40;;;5.20;99.90;;;;;;5028637;28;20258;-65
2023/02/01 08:29:40;;;;;;;22.30;5.20;;;5.20;99.90;;;;;;5030868;28;20316;-65
2023/02/01 08:32:10;;;;;;;23.67;5.77;;;5.30;99.90;;;;;;5065806;28;20818;-65
2023/02/01 08:34:38;;;;;;;26.93;5.20;;;5.30;99.90;;;;;;5027047;28;20256;-65
2023/02/01 08:37:07;;;;;;;25.60;5.27;;;5.40;99.90;;;;;;5028150;28;20204;-65
2023/02/01 08:39:36;;;;;;;27.20;5.90;;;5.40;99.90;;;;;;5036297;28;20550;-65
2023/02/01 08:44:49;;;;;;;22.90;5.33;;;5.50;99.90;;;;;;5014327;28;20770;-65
2023/02/01 08:47:18;;;;;;;23.40;5.27;;;5.50;99.90;;;;;;5022143;28;20213;-65
2023/02/01 08:49:47;;;;;;;23.87;5.23;;;5.50;99.90;;;;;;5030852;28;20194;-65
2023/02/01 08:52:15;;;;;;;28.67;4.97;;;5.60;99.90;;;;;;5028092;28;20194;-65
2023/02/01 08:54:43;;;;;;;21.50;4.77;;;5.70;99.90;;;;;;5032065;28;20195;-65
2023/02/01 08:57:12;;;;;;;26.37;4.97;;;5.80;99.90;;;;;;5016406;28;20194;-65
2023/02/01 08:59:40;;;;;;;20.90;4.90;;;5.90;99.90;;;;;;5033101;28;20203;-65
2023/02/01 09:02:12;;;;;;;19.70;5.33;;;5.90;99.90;;;;;;5030146;28;20200;-65
2023/02/01 09:04:43;;;;;;;25.57;4.60;;;6.00;99.90;;;;;;5029818;28;20181;-65
2023/02/01 09:07:12;;;;;;;29.23;5.30;;;6.10;99.90;;;;;;5030060;28;20208;-65
2023/02/01 09:09:41;;;;;;;19.40;4.40;;;6.10;99.90;;;;;;5032164;28;20549;-65
2023/02/01 09:12:09;;;;;;;27.43;4.93;;;6.20;99.90;;;;;;5031608;28;20197;-65
2023/02/01 09:14:38;;;;;;;27.33;4.70;;;6.40;99.90;;;;;;5030172;28;20194;-65
2023/02/01 09:17:06;;;;;;;19.57;4.70;;;6.60;99.90;;;;;;5032706;28;20277;-65
2023/02/01 09:19:34;;;;;;;22.87;4.70;;;6.70;99.90;;;;;;5031985;28;20280;-65
2023/02/01 09:22:04;;;;;;;24.93;4.67;;;6.90;99.90;;;;;;5026524;28;20198;-65
2023/02/01 09:24:32;;;;;;;25.90;5.50;;;7.00;99.90;;;;;;5030421;28;20194;-65
2023/02/01 09:27:01;;;;;;;19.40;4.60;;;7.20;99.90;;;;;;5064820;28;20916;-65
2023/02/01 09:29:29;;;;;;;17.70;4.47;;;7.30;99.90;;;;;;5031994;28;20224;-65
2023/02/01 09:31:57;;;;;;;20.17;4.50;;;7.40;99.90;;;;;;5030781;28;20199;-65
2023/02/01 09:34:31;;;;;;;24.33;4.90;;;7.50;99.90;;;;;;5030523;28;20197;-65
2023/02/01 09:37:00;;;;;;;26.60;4.63;;;7.60;99.90;;;;;;5023682;28;20194;-65
2023/02/01 09:39:30;;;;;;;14.60;3.80;;;7.70;99.90;;;;;;5030670;28;20580;-65
2023/02/01 09:42:08;;;;;;;26.63;7.67;;;8.00;99.90;;;;;;5055627;28;20300;-65
2023/02/01 09:45:11;;;;;;;23.93;4.83;;;8.30;99.90;;;;;;5030245;28;20208;-65
2023/02/01 09:47:47;;;;;;;20.43;4.97;;;8.50;99.90;;;;;;5027238;28;20200;-65
2023/02/01 09:50:20;;;;;;;17.50;4.40;;;8.60;99.90;;;;;;5031592;28;20292;-65
2023/02/01 09:52:56;;;;;;;15.40;4.73;;;8.70;99.90;;;;;;5029189;28;20216;-65
2023/02/01 09:55:36;;;;;;;21.53;4.17;;;8.80;99.90;;;;;;5031275;28;20197;-65
2023/02/01 09:58:08;;;;;;;23.27;5.57;;;8.80;99.90;;;;;;5032637;28;20567;-65
2023/02/01 10:00:39;;;;;;;24.67;4.23;;;9.00;99.90;;;;;;5029005;28;20197;-65
2023/02/01 10:03:13;;;;;;;17.13;4.10;;;9.30;99.90;;;;;;5029883;28;20300;-65
2023/02/01 10:06:05;;;;;;;25.20;4.33;;;9.60;99.90;;;;;;5028515;28;20205;-65
2023/02/01 10:08:48;;;;;;;17.20;4.07;;;9.80;99.90;;;;;;5023853;28;20236;-65
2023/02/01 10:11:27;;;;;;;20.60;4.03;;;10.00;99.90;;;;;;5028112;28;20200;-65
2023/02/01 10:14:04;;;;;;;16.73;4.20;;;10.30;99.90;;;;;;5032054;28;20563;-65
2023/02/01 10:16:44;;;;;;;22.50;4.73;;;10.30;99.90;;;;;;5052576;28;20188;-65
2023/02/01 10:19:39;;;;;;;14.30;3.60;;;10.20;99.90;;;;;;5026195;28;20185;-66
2023/02/01 10:22:11;;;;;;;18.47;4.07;;;10.10;99.90;;;;;;5060175;28;20213;-65
2023/02/01 10:24:43;;;;;;;10.33;3.40;;;9.90;99.90;;;;;;5030077;28;20723;-65
2023/02/01 10:27:22;;;;;;;16.77;3.57;;;9.90;99.90;;;;;;5027185;28;20766;-65
2023/02/01 10:29:54;;;;;;;11.97;3.67;;;10.10;99.90;;;;;;5029122;28;20212;-65
2023/02/01 10:32:25;;;;;;;10.80;3.20;;;10.20;99.90;;;;;;5025681;28;20201;-65
2023/02/01 10:34:58;;;;;;;17.87;3.97;;;10.30;99.90;;;;;;5039559;28;20208;-65
2023/02/01 10:37:30;;;;;;;22.53;3.80;;;10.40;99.90;;;;;;5025993;28;20208;-65
2023/02/01 10:40:02;;;;;;;14.80;3.40;;;10.40;99.90;;;;;;5026666;28;20279;-66
2023/02/01 10:42:32;;;;;;;22.57;4.10;;;10.60;99.90;;;;;;5030789;28;20197;-65
2023/02/01 10:45:03;;;;;;;16.03;3.87;;;10.70;99.90;;;;;;5028679;28;20202;-65
2023/02/01 10:47:31;;;;;;;15.13;3.83;;;10.70;99.90;;;;;;5026102;28;20197;-65
2023/02/01 10:50:14;;;;;;;12.50;3.70;;;11.00;99.90;;;;;;5026590;28;20217;-66
2023/02/01 10:52:47;;;;;;;11.57;3.23;;;11.40;99.90;;;;;;5040850;28;20825;-65
2023/02/01 10:55:39;;;;;;;15.53;3.77;;;11.60;99.90;;;;;;5029739;28;20201;-66
2023/02/01 10:58:17;;;;;;;17.67;3.67;;;11.60;99.90;;;;;;5031993;28;20189;-65
2023/02/01 11:00:48;;;;;;;15.07;3.40;;;11.70;99.90;;;;;;5023387;28;20202;-66
2023/02/01 11:03:37;;;;;;;14.23;3.00;;;11.90;99.90;;;;;;5025803;28;20639;-66
2023/02/01 11:06:24;;;;;;;14.03;3.60;;;12.10;99.90;;;;;;5017731;28;20849;-66
2023/02/01 11:08:54;;;;;;;11.33;2.93;;;12.30;99.90;;;;;;5032580;28;20228;-66
2023/02/01 11:11:23;;;;;;;16.37;3.37;;;12.40;99.90;;;;;;5038961;28;20192;-66
2023/02/01 11:13:58;;;;;;;16.43;3.90;;;12.40;99.90;;;;;;5037750;28;20217;-66
2023/02/01 11:16:34;;;;;;;10.63;3.00;;;12.20;99.90;;;;;;5029535;28;20197;-66
2023/02/01 11:19:03;;;;;;;15.73;3.20;;;11.80;99.90;;;;;;5027356;28;20624;-66
2023/02/01 11:21:32;;;;;;;13.73;3.53;;;11.60;99.90;;;;;;5040100;28;20197;-66
2023/02/01 11:24:03;;;;;;;17.33;2.90;;;11.10;99.90;;;;;;5024561;28;20316;-66
2023/02/01 11:26:33;;;;;;;20.13;4.10;;;10.80;99.90;;;;;;5035375;28;20549;-65
2023/02/01 11:29:10;;;;;;;13.13;3.47;;;10.60;99.90;;;;;;5025054;28;20221;-66
2023/02/01 11:31:40;;;;;;;16.30;3.50;;;10.60;99.90;;;;;;5026217;28;20627;-65
2023/02/01 11:34:14;;;;;;;11.17;2.83;;;10.50;99.90;;;;;;5026288;28;20285;-66
2023/02/01 11:36:43;;;;;;;11.53;3.03;;;10.50;99.90;;;;;;5052973;28;20193;-65
2023/02/01 11:39:25;;;;;;;10.80;3.17;;;10.50;99.90;;;;;;5026846;28;20205;-66
2023/02/01 11:42:02;;;;;;;14.37;3.30;;;10.50;99.90;;;;;;5044439;28;20214;-66
2023/02/01 11:44:38;;;;;;;9.73;2.70;;;10.40;99.90;;;;;;5064729;28;20199;-66
2023/02/01 11:47:27;;;;;;;10.33;2.63;;;10.40;99.90;;;;;;5045913;28;20193;-66
2023/02/01 11:49:57;;;;;;;14.77;3.17;;;10.60;99.90;;;;;;5065083;28;20213;-66
2023/02/01 11:52:45;;;;;;;8.40;3.10;;;11.10;99.90;;;;;;5027461;28;20331;-66
2023/02/01 11:55:30;;;;;;;10.10;2.53;;;11.60;99.90;;;;;;5059390;28;20315;-66
2023/02/01 11:58:13;;;;;;;8.37;2.60;;;12.10;99.90;;;;;;5030881;28;20570;-66
2023/02/01 12:01:00;;;;;;;8.77;2.53;;;12.50;99.90;;;;;;5036310;28;20187;-66
2023/02/01 12:03:57;;;;;;;10.83;2.87;;;12.60;99.90;;;;;;5031943;28;20536;-66
2023/02/01 12:06:38;;;;;;;12.23;2.57;;;12.60;99.90;;;;;;5023669;28;20838;-66
2023/02/01 12:09:22;;;;;;;12.93;3.03;;;12.40;99.90;;;;;;5028562;28;20283;-66
2023/02/01 12:12:00;;;;;;;11.87;2.53;;;12.50;99.90;;;;;;5031793;28;20316;-66
2023/02/01 12:14:46;;;;;;;9.27;2.70;;;12.40;99.90;;;;;;5030590;28;20201;-66
2023/02/01 12:17:41;;;;;;;10.77;2.50;;;12.30;99.90;;;;;;5033677;28;20193;-65
2023/02/01 12:20:36;;;;;;;9.60;2.43;;;12.30;99.90;;;;;;5027698;28;20203;-66
2023/02/01 12:23:16;;;;;;;11.60;2.97;;;12.30;99.90;;;;;;5029179;28;20199;-66
2023/02/01 12:26:01;;;;;;;9.97;2.93;;;12.40;99.90;;;;;;5036042;28;20773;-66
2023/02/01 12:29:00;;;;;;;11.17;2.77;;;12.40;99.90;;;;;;5027160;28;20189;-66
2023/02/01 12:31:51;;;;;;;9.80;2.40;;;12.70;99.90;;;;;;5030801;28;20206;-66
2023/02/01 12:34:55;;;;;;;5.93;2.40;;;12.80;99.90;;;;;;5044438;28;20196;-66
2023/02/01 12:37:40;;;;;;;8.87;2.70;;;13.00;99.90;;;;;;5027559;28;20678;-67
2023/02/01 12:40:22;;;;;;;8.40;2.30;;;12.90;99.90;;;;;;5027704;28;20241;-66
2023/02/01 12:42:59;;;;;;;7.97;2.50;;;13.00;99.90;;;;;;5064762;28;21279;-66
2023/02/01 12:45:34;;;;;;;5.63;2.40;;;13.20;99.90;;;;;;5034043;28;20203;-66
2023/02/01 12:48:16;;;;;;;8.70;2.47;;;13.30;99.90;;;;;;5027487;28;20769;-66
2023/02/01 12:50:51;;;;;;;6.90;2.03;;;13.40;99.90;;;;;;5032557;28;20218;-66
2023/02/01 12:53:28;;;;;;;8.30;2.30;;;13.40;99.90;;;;;;5032425;28;20715;-66
2023/02/01 12:56:02;;;;;;;4.60;2.70;;;13.20;99.90;;;;;;5024236;28;20206;-66
2023/02/01 12:58:39;;;;;;;8.03;2.63;;;13.30;99.90;;;;;;5019249;28;20206;-66
2023/02/01 13:01:12;;;;;;;14.40;2.90;;;13.50;99.90;;;;;;5029593;28;20216;-65
2023/02/01 13:03:45;;;;;;;7.73;2.53;;;13.20;99.90;;;;;;5031364;28;20224;-67
2023/02/01 13:06:19;;;;;;;7.67;2.27;;;13.10;99.90;;;;;;5029880;28;20212;-66
2023/02/01 13:08:53;;;;;;;7.50;2.20;;;13.10;99.90;;;;;;5027532;28;20247;-66
2023/02/01 13:11:26;;;;;;;9.73;3.00;;;13.20;99.90;;;;;;5028309;28;20225;-66
2023/02/01 13:14:01;;;;;;;11.80;2.53;;;13.40;99.90;;;;;;5027549;28;20629;-66
2023/02/01 13:16:32;;;;;;;6.33;2.50;;;13.20;99.90;;;;;;5024185;28;20743;-66
2023/02/01 13:19:10;;;;;;;8.23;2.60;;;13.00;99.90;;;;;;5036484;28;20194;-66
2023/02/01 13:21:44;;;;;;;9.17;2.47;;;13.00;99.90;;;;;;5052974;28;20244;-66
2023/02/01 13:24:29;;;;;;;8.00;2.60;;;12.90;99.90;;;;;;5024302;28;20199;-66
2023/02/01 13:26:57;;;;;;;13.87;2.37;;;12.90;99.90;;;;;;5022757;28;20262;-66
2023/02/01 13:29:27;;;;;;;9.80;2.80;;;13.10;99.90;;;;;;5023256;28;20194;-66
2023/02/01 13:32:17;;;;;;;10.43;2.40;;;12.90;99.90;;;;;;5026099;28;20201;-66
2023/02/01 13:35:15;;;;;;;8.10;2.40;;;12.80;99.90;;;;;;5022775;28;20205;-66
2023/02/01 13:38:07;;;;;;;11.10;3.37;;;12.70;99.90;;;;;;5025710;28;20225;-66
2023/02/01 13:40:40;;;;;;;5.07;2.50;;;12.60;99.90;;;;;;4990491;28;20217;-65
2023/02/01 13:43:15;;;;;;;6.47;2.43;;;12.50;99.90;;;;;;5025696;28;20193;-66
2023/02/01 13:45:48;;;;;;;11.40;3.10;;;12.50;99.90;;;;;;5015805;28;20551;-66
2023/02/01 13:48:24;;;;;;;8.13;2.27;;;12.40;99.90;;;;;;5022549;28;20220;-66
2023/02/01 13:50:55;;;;;;;10.77;2.77;;;12.20;99.90;;;;;;5030189;28;20211;-66
2023/02/01 13:53:29;;;;;;;11.17;2.70;;;12.20;99.90;;;;;;5023184;28;20303;-66
2023/02/01 13:56:00;;;;;;;7.07;2.53;;;12.20;99.90;;;;;;5029244;28;20742;-66
2023/02/01 13:58:35;;;;;;;9.53;2.67;;;12.30;99.90;;;;;;5036613;28;20205;-66
2023/02/01 14:01:34;;;;;;;9.97;2.70;;;12.20;99.90;;;;;;5021954;28;20185;-66
2023/02/01 14:04:04;;;;;;;12.97;3.20;;;12.30;99.90;;;;;;5021323;28;20189;-66